createdAt,value
2023-05-19T00:01:17.487Z,102873.44
2023-05-19T00:03:52.746Z,102877.72
2023-05-19T00:06:24.878Z,102867.84
2023-05-19T00:08:57.572Z,102871.81
2023-05-19T00:11:26.414Z,102873.41
2023-05-19T00:13:57.688Z,102870.81
2023-05-19T00:16:25.592Z,102869.78
2023-05-19T00:18:53.258Z,102865.22
2023-05-19T00:21:20.835Z,102859.81
2023-05-19T00:23:47.254Z,102852.91
2023-05-19T00:26:13.638Z,102863.44
2023-05-19T00:28:40.102Z,102852.81
2023-05-19T00:31:06.952Z,102856.59
2023-05-19T00:33:34.079Z,102853.44
2023-05-19T00:36:04.758Z,102848.88
2023-05-19T00:38:32.403Z,102848.09
2023-05-19T00:40:59.066Z,102852.19
2023-05-19T00:43:26.034Z,102853.50
2023-05-19T00:45:52.559Z,102850.50
2023-05-19T00:48:19.147Z,102848.47
2023-05-19T00:50:46.012Z,102850.13
2023-05-19T00:53:14.526Z,102849.19
2023-05-19T00:55:41.052Z,102843.31
2023-05-19T00:58:10.472Z,102845.84
2023-05-19T01:00:37.110Z,102848.22
2023-05-19T01:03:11.043Z,102848.78
2023-05-19T01:05:42.173Z,102850.03
2023-05-19T01:08:09.113Z,102853.38
2023-05-19T01:10:35.875Z,102853.88
2023-05-19T01:13:04.467Z,102853.19
2023-05-19T01:15:36.227Z,102855.91
2023-05-19T01:18:11.667Z,102858.53
2023-05-19T01:20:55.074Z,102850.47
2023-05-19T01:23:40.052Z,102858.59
2023-05-19T01:26:45.214Z,102855.38
2023-05-19T01:29:36.260Z,102859.38
2023-05-19T01:32:05.888Z,102852.13
2023-05-19T01:34:34.756Z,102845.44
2023-05-19T01:37:02.293Z,102846.16
2023-05-19T01:39:29.558Z,102844.09
2023-05-19T01:41:57.846Z,102839.91
2023-05-19T01:44:24.383Z,102827.63
2023-05-19T01:46:50.981Z,102830.19
2023-05-19T01:49:17.352Z,102834.22
2023-05-19T01:51:44.013Z,102836.22
2023-05-19T01:54:10.412Z,102836.41
2023-05-19T01:57:09.170Z,102833.91
2023-05-19T01:59:50.784Z,102834.25
2023-05-19T02:03:04.330Z,102826.69
2023-05-19T02:05:52.059Z,102820.28
2023-05-19T02:08:30.724Z,102819.13
2023-05-19T02:11:07.684Z,102828.59
2023-05-19T02:13:37.898Z,102827.56
2023-05-19T02:16:05.765Z,102825.88
2023-05-19T02:18:33.350Z,102826.59
2023-05-19T02:20:59.802Z,102823.59
2023-05-19T02:23:26.230Z,102819.56
2023-05-19T02:25:52.959Z,102822.78
2023-05-19T02:28:19.315Z,102817.59
2023-05-19T02:30:45.709Z,102825.34
2023-05-19T02:33:12.297Z,102824.66
2023-05-19T02:35:38.721Z,102810.19
2023-05-19T02:38:05.145Z,102814.97
2023-05-19T02:40:31.859Z,102817.19
2023-05-19T02:42:58.434Z,102811.13
2023-05-19T02:45:24.877Z,102815.50
2023-05-19T02:47:51.360Z,102816.00
2023-05-19T02:50:17.746Z,102802.19
2023-05-19T02:52:44.140Z,102805.38
2023-05-19T02:55:16.777Z,102804.78
2023-05-19T02:57:43.359Z,102802.28
2023-05-19T03:00:10.166Z,102802.59
2023-05-19T03:02:36.623Z,102804.09
2023-05-19T03:05:03.748Z,102801.06
2023-05-19T03:07:30.223Z,102801.22
2023-05-19T03:09:56.584Z,102795.50
2023-05-19T03:12:23.001Z,102784.59
2023-05-19T03:14:49.524Z,102786.44
2023-05-19T03:17:16.011Z,102790.16
2023-05-19T03:19:42.482Z,102796.38
2023-05-19T03:22:10.118Z,102796.19
2023-05-19T03:24:36.515Z,102793.50
2023-05-19T03:27:05.185Z,102798.06
2023-05-19T03:29:31.710Z,102789.31
2023-05-19T03:31:58.272Z,102793.19
2023-05-19T03:34:24.679Z,102791.50
2023-05-19T03:36:51.009Z,102805.66
2023-05-19T03:39:17.410Z,102792.88
2023-05-19T03:41:43.885Z,102787.84
2023-05-19T03:44:10.294Z,102791.53
2023-05-19T03:46:36.700Z,102786.81
2023-05-19T03:49:03.165Z,102783.13
2023-05-19T03:51:29.992Z,102791.22
2023-05-19T03:53:57.109Z,102787.66
2023-05-19T03:56:24.903Z,102785.31
2023-05-19T03:58:51.170Z,102788.00
2023-05-19T04:01:17.923Z,102785.16
2023-05-19T04:03:44.423Z,102796.59
2023-05-19T04:06:11.196Z,102798.94
2023-05-19T04:08:37.599Z,102800.25
2023-05-19T04:11:04.190Z,102794.06
2023-05-19T04:13:33.077Z,102801.81
2023-05-19T04:16:02.858Z,102795.56
2023-05-19T04:18:29.518Z,102794.72
2023-05-19T04:20:56.052Z,102797.56
2023-05-19T04:23:22.489Z,102797.22
2023-05-19T04:25:49.593Z,102797.91
2023-05-19T04:28:16.070Z,102801.91
2023-05-19T04:30:42.599Z,102803.59
2023-05-19T04:33:11.822Z,102797.88
2023-05-19T04:35:39.676Z,102801.88
2023-05-19T04:38:06.030Z,102801.38
2023-05-19T04:40:32.699Z,102795.28
2023-05-19T04:43:01.882Z,102801.50
2023-05-19T04:45:28.416Z,102801.03
2023-05-19T04:47:57.907Z,102807.22
2023-05-19T04:50:24.715Z,102803.16
2023-05-19T04:52:51.116Z,102801.44
2023-05-19T04:55:17.538Z,102800.41
2023-05-19T04:57:43.910Z,102801.38
2023-05-19T05:00:13.824Z,102808.56
2023-05-19T05:02:42.481Z,102805.34
2023-05-19T05:05:10.118Z,102805.94
2023-05-19T05:07:36.581Z,102803.75
2023-05-19T05:10:03.952Z,102805.03
2023-05-19T05:12:30.865Z,102794.81
2023-05-19T05:14:57.681Z,102803.69
2023-05-19T05:17:25.592Z,102807.69
2023-05-19T05:19:52.374Z,102812.00
2023-05-19T05:22:19.023Z,102809.22
2023-05-19T05:24:46.041Z,102805.72
2023-05-19T05:27:13.247Z,102800.91
2023-05-19T05:29:39.624Z,102806.72
2023-05-19T05:32:06.318Z,102809.03
2023-05-19T05:34:32.744Z,102806.91
2023-05-19T05:36:59.148Z,102803.56
2023-05-19T05:39:25.540Z,102806.72
2023-05-19T05:41:52.099Z,102812.50
2023-05-19T05:44:18.466Z,102805.81
2023-05-19T05:46:45.144Z,102810.16
2023-05-19T05:49:13.406Z,102809.09
2023-05-19T05:51:40.674Z,102814.69
2023-05-19T05:54:07.640Z,102812.13
2023-05-19T05:56:34.460Z,102814.44
2023-05-19T05:59:01.918Z,102809.06
2023-05-19T06:01:30.406Z,102810.19
2023-05-19T06:03:56.853Z,102807.28
2023-05-19T06:06:23.216Z,102806.25
2023-05-19T06:08:49.606Z,102809.25
2023-05-19T06:11:16.272Z,102806.09
2023-05-19T06:13:42.685Z,102811.72
2023-05-19T06:16:09.657Z,102814.50
2023-05-19T06:18:36.195Z,102807.56
2023-05-19T06:21:03.282Z,102810.53
2023-05-19T06:23:31.195Z,102813.09
2023-05-19T06:25:57.708Z,102807.94
2023-05-19T06:28:24.109Z,102804.19
2023-05-19T06:30:50.552Z,102797.59
2023-05-19T06:33:16.954Z,102808.72
2023-05-19T06:35:43.352Z,102802.72
2023-05-19T06:38:09.752Z,102800.34
2023-05-19T06:40:36.950Z,102798.88
2023-05-19T06:43:04.764Z,102800.59
2023-05-19T06:45:31.131Z,102799.16
2023-05-19T06:47:58.359Z,102799.44
2023-05-19T06:50:25.451Z,102798.88
2023-05-19T06:52:51.867Z,102797.31
2023-05-19T06:55:18.411Z,102797.50
2023-05-19T06:57:44.864Z,102792.53
2023-05-19T07:00:13.418Z,102799.28
2023-05-19T07:02:41.816Z,102812.50
2023-05-19T07:05:09.202Z,102806.34
2023-05-19T07:07:35.678Z,102811.38
2023-05-19T07:10:02.101Z,102809.31
2023-05-19T07:12:28.475Z,102806.28
2023-05-19T07:14:54.827Z,102802.19
2023-05-19T07:17:24.167Z,102803.63
2023-05-19T07:19:50.623Z,102799.16
2023-05-19T07:22:17.198Z,102808.09
2023-05-19T07:24:43.561Z,102794.66
2023-05-19T07:27:10.354Z,102799.22
2023-05-19T07:29:36.819Z,102797.41
2023-05-19T07:32:03.456Z,102805.75
2023-05-19T07:34:29.953Z,102799.84
2023-05-19T07:36:56.624Z,102798.53
2023-05-19T07:39:25.191Z,102809.38
2023-05-19T07:41:55.523Z,102803.06
2023-05-19T07:44:22.087Z,102797.56
2023-05-19T07:46:48.495Z,102799.13
2023-05-19T07:49:14.840Z,102792.66
2023-05-19T07:51:41.985Z,102796.88
2023-05-19T07:54:08.771Z,102799.63
2023-05-19T07:56:35.148Z,102789.03
2023-05-19T07:59:01.615Z,102787.13
2023-05-19T08:01:28.223Z,102781.63
2023-05-19T08:03:54.839Z,102781.75
2023-05-19T08:06:21.370Z,102777.19
2023-05-19T08:08:48.130Z,102775.41
2023-05-19T08:11:14.697Z,102769.34
2023-05-19T08:13:41.112Z,102769.63
2023-05-19T08:16:07.859Z,102772.25
2023-05-19T08:18:34.399Z,102769.41
2023-05-19T08:21:01.415Z,102769.00
2023-05-19T08:23:27.809Z,102765.28
2023-05-19T08:25:54.222Z,102752.78
2023-05-19T08:28:20.993Z,102768.53
2023-05-19T08:30:47.442Z,102755.47
2023-05-19T08:33:13.852Z,102751.38
2023-05-19T08:35:40.424Z,102751.81
2023-05-19T08:38:06.917Z,102744.72
2023-05-19T08:40:34.900Z,102744.97
2023-05-19T08:43:01.456Z,102735.81
2023-05-19T08:45:28.232Z,102742.75
2023-05-19T08:47:54.584Z,102742.13
2023-05-19T08:50:30.711Z,102735.44
2023-05-19T08:53:01.402Z,102734.44
2023-05-19T08:55:41.176Z,102728.50
2023-05-19T08:58:09.059Z,102733.09
2023-05-19T09:00:36.031Z,102721.78
2023-05-19T09:03:17.700Z,102727.66
2023-05-19T09:05:46.316Z,102717.16
2023-05-19T09:08:13.316Z,102724.63
2023-05-19T09:10:39.688Z,102726.88
2023-05-19T09:13:06.438Z,102716.69
2023-05-19T09:15:36.675Z,102715.81
2023-05-19T09:18:11.576Z,102723.06
2023-05-19T09:20:40.637Z,102714.56
2023-05-19T09:23:07.876Z,102715.94
2023-05-19T09:25:34.761Z,102714.28
2023-05-19T09:28:01.401Z,102705.59
2023-05-19T09:30:27.814Z,102710.59
2023-05-19T09:32:54.254Z,102708.63
2023-05-19T09:35:21.579Z,102715.56
2023-05-19T09:37:48.244Z,102714.50
2023-05-19T09:40:15.648Z,102704.59
2023-05-19T09:42:43.020Z,102706.25
2023-05-19T09:45:09.708Z,102710.63
2023-05-19T09:47:40.326Z,102709.19
2023-05-19T09:50:11.853Z,102708.88
2023-05-19T09:52:39.444Z,102711.53
2023-05-19T09:55:09.801Z,102696.47
2023-05-19T09:57:37.586Z,102698.47
2023-05-19T10:00:17.833Z,102696.56
2023-05-19T10:02:46.154Z,102700.97
2023-05-19T10:05:20.727Z,102705.00
2023-05-19T10:07:51.545Z,102697.84
2023-05-19T10:10:21.799Z,102698.47
2023-05-19T10:12:49.237Z,102697.13
2023-05-19T10:15:17.700Z,102685.25
2023-05-19T10:17:45.531Z,102689.91
2023-05-19T10:20:16.463Z,102686.88
2023-05-19T10:22:44.671Z,102682.44
2023-05-19T10:25:13.049Z,102686.50
2023-05-19T10:27:44.215Z,102682.09
2023-05-19T10:30:22.342Z,102680.38
2023-05-19T10:32:49.281Z,102675.53
2023-05-19T10:35:46.680Z,102676.22
2023-05-19T10:38:27.488Z,102676.81
2023-05-19T10:41:00.929Z,102671.34
2023-05-19T10:43:49.121Z,102657.91
2023-05-19T10:46:15.855Z,102666.88
2023-05-19T10:48:46.524Z,102669.66
2023-05-19T10:51:30.209Z,102664.06
2023-05-19T10:53:58.710Z,102662.59
2023-05-19T10:56:32.728Z,102667.13
2023-05-19T10:58:59.096Z,102667.78
2023-05-19T11:01:32.147Z,102668.91
2023-05-19T11:04:10.582Z,102669.91
2023-05-19T11:06:38.047Z,102667.38
2023-05-19T11:09:20.887Z,102655.81
2023-05-19T11:11:53.170Z,102649.53
2023-05-19T11:14:26.607Z,102643.25
2023-05-19T11:16:57.323Z,102642.53
2023-05-19T11:19:31.183Z,102645.38
2023-05-19T11:22:08.304Z,102642.34
2023-05-19T11:24:45.119Z,102643.88
2023-05-19T11:27:32.468Z,102643.69
2023-05-19T11:30:06.583Z,102643.59
2023-05-19T11:32:35.889Z,102635.81
2023-05-19T11:35:02.629Z,102630.28
2023-05-19T11:37:32.064Z,102629.25
2023-05-19T11:40:01.840Z,102627.91
2023-05-19T11:42:28.288Z,102618.06
2023-05-19T11:44:55.714Z,102628.34
2023-05-19T11:47:22.235Z,102618.97
2023-05-19T11:49:48.921Z,102619.72
2023-05-19T11:52:15.515Z,102615.25
2023-05-19T11:54:42.184Z,102607.56
2023-05-19T11:57:09.764Z,102606.09
2023-05-19T11:59:39.134Z,102609.94
2023-05-19T12:02:22.284Z,102606.34
2023-05-19T12:04:52.169Z,102609.09
2023-05-19T12:07:22.704Z,102612.38
2023-05-19T12:09:50.821Z,102619.41
2023-05-19T12:12:18.652Z,102613.44
2023-05-19T12:14:51.448Z,102621.75
2023-05-19T12:17:20.085Z,102615.97
2023-05-19T12:19:48.217Z,102612.91
2023-05-19T12:22:16.194Z,102613.78
2023-05-19T12:24:43.518Z,102613.53
2023-05-19T12:27:17.781Z,102604.34
2023-05-19T12:29:52.793Z,102601.72
2023-05-19T12:32:23.353Z,102604.19
2023-05-19T12:34:50.268Z,102603.56
2023-05-19T12:37:16.749Z,102599.78
2023-05-19T12:39:43.902Z,102587.84
2023-05-19T12:42:11.404Z,102594.78
2023-05-19T12:44:39.289Z,102590.50
2023-05-19T12:47:07.059Z,102583.97
2023-05-19T12:49:34.070Z,102581.28
2023-05-19T12:52:07.176Z,102577.56
2023-05-19T12:54:36.945Z,102584.75
2023-05-19T12:57:06.102Z,102582.69
2023-05-19T12:59:38.492Z,102576.31
2023-05-19T13:02:06.487Z,102569.28
2023-05-19T13:04:33.090Z,102587.03
2023-05-19T13:06:59.549Z,102573.69
2023-05-19T13:09:26.703Z,102575.72
2023-05-19T13:11:53.983Z,102570.53
2023-05-19T13:14:20.755Z,102562.63
2023-05-19T13:16:47.514Z,102565.53
2023-05-19T13:19:25.363Z,102569.34
2023-05-19T13:21:52.319Z,102570.38
2023-05-19T13:24:18.742Z,102568.22
2023-05-19T13:26:45.415Z,102570.59
2023-05-19T13:29:11.903Z,102561.75
2023-05-19T13:31:38.345Z,102558.59
2023-05-19T13:34:04.967Z,102554.25
2023-05-19T13:36:33.291Z,102553.84
2023-05-19T13:39:00.702Z,102551.28
2023-05-19T13:41:29.157Z,102546.13
2023-05-19T13:43:59.440Z,102546.25
2023-05-19T13:46:36.549Z,102544.72
2023-05-19T13:49:10.928Z,102532.31
2023-05-19T13:51:37.608Z,102527.88
2023-05-19T13:54:04.923Z,102532.16
2023-05-19T13:56:31.720Z,102527.78
2023-05-19T13:58:58.223Z,102529.00
2023-05-19T14:01:24.781Z,102537.34
2023-05-19T14:03:51.404Z,102526.06
2023-05-19T14:06:18.003Z,102526.00
2023-05-19T14:08:45.492Z,102520.06
2023-05-19T14:11:21.490Z,102523.13
2023-05-19T14:13:53.109Z,102522.38
2023-05-19T14:16:21.880Z,102518.72
2023-05-19T14:18:48.950Z,102519.88
2023-05-19T14:21:15.677Z,102514.38
2023-05-19T14:26:23.913Z,102511.81
2023-05-19T14:28:50.449Z,102514.84
2023-05-19T14:31:16.964Z,102513.75
2023-05-19T14:33:43.452Z,102504.81
2023-05-19T14:36:10.280Z,102510.41
2023-05-19T14:38:36.824Z,102509.75
2023-05-19T14:41:03.233Z,102508.28
2023-05-19T14:43:29.665Z,102500.47
2023-05-19T14:45:56.795Z,102496.00
2023-05-19T14:48:23.209Z,102490.50
2023-05-19T14:50:49.669Z,102487.53
2023-05-19T14:53:16.648Z,102495.22
2023-05-19T14:55:43.671Z,102490.19
2023-05-19T14:58:23.573Z,102490.88
2023-05-19T15:00:53.828Z,102499.16
2023-05-19T15:03:20.383Z,102485.06
2023-05-19T15:05:46.740Z,102485.19
2023-05-19T15:08:13.324Z,102485.53
2023-05-19T15:10:39.705Z,102493.75
2023-05-19T15:13:06.087Z,102488.16
2023-05-19T15:15:32.506Z,102489.88
2023-05-19T15:17:59.011Z,102481.63
2023-05-19T15:20:27.451Z,102479.50
2023-05-19T15:22:55.819Z,102479.75
2023-05-19T15:25:22.184Z,102480.28
2023-05-19T15:27:48.697Z,102485.47
2023-05-19T15:30:15.197Z,102472.84
2023-05-19T15:32:41.653Z,102482.00
2023-05-19T15:35:08.533Z,102482.53
2023-05-19T15:37:34.885Z,102483.31
2023-05-19T15:40:01.254Z,102482.31
2023-05-19T15:42:27.722Z,102478.50
2023-05-19T15:44:54.538Z,102473.50
2023-05-19T15:47:20.977Z,102479.34
2023-05-19T15:49:47.668Z,102480.06
2023-05-19T15:52:14.037Z,102477.63
2023-05-19T15:54:40.768Z,102477.41
2023-05-19T15:57:07.326Z,102469.22
2023-05-19T15:59:33.747Z,102468.28
2023-05-19T16:02:00.285Z,102460.56
2023-05-19T16:04:26.816Z,102459.47
2023-05-19T16:06:53.317Z,102464.78
2023-05-19T16:09:19.727Z,102466.16
2023-05-19T16:11:46.134Z,102461.28
2023-05-19T16:14:12.671Z,102451.16
2023-05-19T16:16:39.099Z,102448.69
2023-05-19T16:19:05.681Z,102457.41
2023-05-19T16:21:32.245Z,102444.13
2023-05-19T16:23:58.770Z,102450.56
2023-05-19T16:26:25.315Z,102449.59
2023-05-19T16:28:52.046Z,102441.47
2023-05-19T16:31:18.435Z,102447.13
2023-05-19T16:33:44.910Z,102448.78
2023-05-19T16:36:11.308Z,102443.91
2023-05-19T16:38:37.675Z,102444.91
2023-05-19T16:41:06.508Z,102449.13
2023-05-19T16:43:33.898Z,102444.75
2023-05-19T16:46:00.460Z,102445.31
2023-05-19T16:48:27.017Z,102451.97
2023-05-19T16:50:53.589Z,102449.75
2023-05-19T16:53:20.098Z,102454.69
2023-05-19T16:55:46.502Z,102444.16
2023-05-19T16:58:13.197Z,102452.06
2023-05-19T17:00:39.624Z,102441.31
2023-05-19T17:03:06.226Z,102442.19
2023-05-19T17:05:33.060Z,102448.88
2023-05-19T17:07:59.546Z,102449.75
2023-05-19T17:10:25.974Z,102450.25
2023-05-19T17:12:52.396Z,102448.03
2023-05-19T17:15:19.098Z,102443.38
2023-05-19T17:17:45.531Z,102451.59
2023-05-19T17:20:13.212Z,102450.75
2023-05-19T17:22:39.641Z,102445.78
2023-05-19T17:25:06.843Z,102448.63
2023-05-19T17:27:33.186Z,102443.09
2023-05-19T17:29:59.798Z,102445.88
2023-05-19T17:32:28.262Z,102455.28
2023-05-19T17:34:54.800Z,102450.28
2023-05-19T17:37:25.470Z,102450.59
2023-05-19T17:39:51.986Z,102448.03
2023-05-19T17:42:18.516Z,102440.81
2023-05-19T17:44:45.006Z,102456.16
2023-05-19T17:47:11.429Z,102458.81
2023-05-19T17:49:38.453Z,102454.44
2023-05-19T17:52:04.935Z,102459.94
2023-05-19T17:54:31.677Z,102450.56
2023-05-19T17:57:01.463Z,102448.88
2023-05-19T17:59:28.172Z,102456.78
2023-05-19T18:01:55.034Z,102456.47
2023-05-19T18:04:22.008Z,102457.31
2023-05-19T18:06:51.066Z,102460.84
2023-05-19T18:09:19.488Z,102464.13
2023-05-19T18:11:45.868Z,102457.94
2023-05-19T18:14:12.286Z,102459.69
2023-05-19T18:16:38.761Z,102463.38
2023-05-19T18:19:05.323Z,102472.97
2023-05-19T18:21:31.996Z,102468.56
2023-05-19T18:24:00.439Z,102467.88
2023-05-19T18:26:27.024Z,102470.25
2023-05-19T18:28:53.446Z,102469.88
2023-05-19T18:31:20.208Z,102475.81
2023-05-19T18:33:47.174Z,102486.72
2023-05-19T18:36:15.420Z,102478.66
2023-05-19T18:38:45.010Z,102477.78
2023-05-19T18:41:11.621Z,102484.72
2023-05-19T18:43:38.842Z,102483.69
2023-05-19T18:46:05.405Z,102487.28
2023-05-19T18:48:33.080Z,102496.03
2023-05-19T18:50:59.763Z,102496.69
2023-05-19T18:53:26.193Z,102485.38
2023-05-19T18:55:52.555Z,102491.75
2023-05-19T18:58:19.194Z,102490.28
2023-05-19T19:00:45.703Z,102495.25
2023-05-19T19:03:12.557Z,102493.84
2023-05-19T19:05:39.478Z,102497.91
2023-05-19T19:08:05.863Z,102500.13
2023-05-19T19:10:34.751Z,102499.72
2023-05-19T19:13:01.423Z,102498.25
2023-05-19T19:15:28.329Z,102500.41
2023-05-19T19:17:54.805Z,102500.63
2023-05-19T19:20:21.286Z,102503.94
2023-05-19T19:22:47.693Z,102504.28
2023-05-19T19:25:14.311Z,102514.44
2023-05-19T19:27:40.798Z,102514.69
2023-05-19T19:30:07.992Z,102509.16
2023-05-19T19:32:34.432Z,102520.63
2023-05-19T19:35:00.882Z,102519.16
2023-05-19T19:37:27.345Z,102524.53
2023-05-19T19:39:53.812Z,102522.78
2023-05-19T19:42:20.283Z,102523.53
2023-05-19T19:44:46.889Z,102530.78
2023-05-19T19:47:13.258Z,102531.59
2023-05-19T19:49:39.672Z,102537.78
2023-05-19T19:52:06.147Z,102543.84
2023-05-19T19:54:32.593Z,102540.16
2023-05-19T19:56:59.061Z,102546.63
2023-05-19T19:59:26.814Z,102552.19
2023-05-19T20:01:53.403Z,102555.75
2023-05-19T20:04:19.962Z,102554.66
2023-05-19T20:06:46.429Z,102560.44
2023-05-19T20:09:13.037Z,102563.69
2023-05-19T20:11:40.623Z,102563.31
2023-05-19T20:14:07.093Z,102559.16
2023-05-19T20:16:33.598Z,102557.41
2023-05-19T20:19:00.109Z,102558.56
2023-05-19T20:21:26.606Z,102570.34
2023-05-19T20:23:53.097Z,102570.00
2023-05-19T20:26:20.444Z,102569.16
2023-05-19T20:28:46.841Z,102576.00
2023-05-19T20:31:13.249Z,102576.06
2023-05-19T20:33:39.751Z,102570.72
2023-05-19T20:36:07.162Z,102574.50
2023-05-19T20:38:33.519Z,102583.50
2023-05-19T20:41:00.003Z,102580.84
2023-05-19T20:43:26.562Z,102586.88
2023-05-19T20:45:53.117Z,102591.03
2023-05-19T20:48:19.630Z,102590.63
2023-05-19T20:50:46.203Z,102590.50
2023-05-19T20:53:12.557Z,102596.00
2023-05-19T20:55:39.070Z,102590.84
2023-05-19T20:58:05.703Z,102590.41
2023-05-19T21:00:32.322Z,102596.06
2023-05-19T21:02:59.195Z,102591.31
2023-05-19T21:05:25.656Z,102591.31
2023-05-19T21:07:52.026Z,102598.84
2023-05-19T21:10:18.615Z,102598.06
2023-05-19T21:12:46.217Z,102596.44
2023-05-19T21:15:12.712Z,102592.19
2023-05-19T21:17:39.153Z,102599.97
2023-05-19T21:20:06.273Z,102594.16
2023-05-19T21:22:32.755Z,102593.59
2023-05-19T21:24:59.130Z,102601.63
2023-05-19T21:27:25.504Z,102600.63
2023-05-19T21:29:53.483Z,102605.44
2023-05-19T21:32:20.812Z,102607.50
2023-05-19T21:34:47.497Z,102600.38
2023-05-19T21:37:13.953Z,102610.44
2023-05-19T21:39:40.433Z,102612.34
2023-05-19T21:42:06.850Z,102605.44
2023-05-19T21:44:33.208Z,102614.13
2023-05-19T21:46:59.657Z,102613.91
2023-05-19T21:49:26.175Z,102614.41
2023-05-19T21:51:52.694Z,102615.66
2023-05-19T21:54:19.135Z,102614.47
2023-05-19T21:56:45.612Z,102615.94
2023-05-19T21:59:12.138Z,102618.50
2023-05-19T22:01:38.873Z,102628.78
2023-05-19T22:04:05.571Z,102619.81
2023-05-19T22:06:32.242Z,102618.38
2023-05-19T22:09:01.167Z,102622.16
2023-05-19T22:11:27.703Z,102623.22
2023-05-19T22:13:56.754Z,102621.53
2023-05-19T22:16:23.181Z,102625.13
2023-05-19T22:18:49.670Z,102618.91
2023-05-19T22:21:16.108Z,102615.16
2023-05-19T22:23:42.568Z,102617.22
2023-05-19T22:26:09.077Z,102616.00
2023-05-19T22:28:35.564Z,102612.47
2023-05-19T22:31:01.996Z,102612.13
2023-05-19T22:33:28.419Z,102614.41
2023-05-19T22:35:54.958Z,102619.50
2023-05-19T22:38:21.402Z,102623.94
2023-05-19T22:40:47.949Z,102622.06
2023-05-19T22:43:14.349Z,102626.06
2023-05-19T22:45:40.831Z,102618.31
2023-05-19T22:48:07.381Z,102617.28
2023-05-19T22:50:33.860Z,102619.19
2023-05-19T22:53:00.237Z,102624.25
2023-05-19T22:55:26.656Z,102629.69
2023-05-19T22:57:53.052Z,102619.69
2023-05-19T23:00:20.703Z,102624.31
2023-05-19T23:02:47.183Z,102629.50
2023-05-19T23:05:13.646Z,102630.59
2023-05-19T23:07:40.158Z,102631.41
2023-05-19T23:10:07.475Z,102626.41
2023-05-19T23:12:33.990Z,102629.13
2023-05-19T23:15:00.632Z,102623.31
2023-05-19T23:17:27.088Z,102621.44
2023-05-19T23:19:53.511Z,102619.75
2023-05-19T23:22:20.066Z,102620.38
2023-05-19T23:24:46.482Z,102624.78
2023-05-19T23:27:12.876Z,102627.28
2023-05-19T23:29:39.318Z,102628.53
2023-05-19T23:32:05.995Z,102625.41
2023-05-19T23:34:32.450Z,102617.03
2023-05-19T23:36:58.858Z,102617.50
2023-05-19T23:39:25.868Z,102617.47
2023-05-19T23:41:52.232Z,102616.22
2023-05-19T23:44:18.656Z,102623.53
2023-05-19T23:46:45.080Z,102612.06
2023-05-19T23:49:11.516Z,102617.28
2023-05-19T23:51:37.956Z,102614.75
2023-05-19T23:54:04.371Z,102613.50
2023-05-19T23:56:30.752Z,102607.88
2023-05-19T23:58:57.336Z,102610.97
